Time;durP1;ratioP1;P1;durP2;ratioP2;P2;SDS_P1;SDS_P2;PMS_P1;PMS_P2;Temp;Humidity;BMP_temperature;BMP_pressure;BME280_temperature;BME280_humidity;BME280_pressure;Samples;Min_cycle;Max_cycle;Signal;HPM_P1;HPM_P2
2023/03/02 00:01:47;;;;;;;22.27;16.30;;;3.60;99.90;;;;;;5045599;28;20041;-77
2023/03/02 00:04:44;;;;;;;21.45;15.95;;;3.60;99.90;;;;;;5045954;28;20468;-77
2023/03/02 00:07:13;;;;;;;35.25;18.67;;;3.60;99.90;;;;;;5045346;28;20049;-77
2023/03/02 00:09:39;;;;;;;20.13;15.63;;;3.60;99.90;;;;;;5046737;28;20080;-77
2023/03/02 00:12:06;;;;;;;29.63;18.38;;;3.60;99.90;;;;;;5045296;28;20098;-77
2023/03/02 00:14:32;;;;;;;21.48;14.45;;;3.60;99.90;;;;;;5047328;28;20044;-78
2023/03/02 00:16:57;;;;;;;22.42;14.15;;;3.60;99.90;;;;;;5047369;28;20053;-77
2023/03/02 00:19:23;;;;;;;25.02;15.52;;;3.50;99.90;;;;;;5059852;28;20032;-77
2023/03/02 00:21:48;;;;;;;26.90;18.58;;;3.50;99.90;;;;;;5065225;28;20080;-77
2023/03/02 00:24:14;;;;;;;20.67;14.93;;;3.50;99.90;;;;;;5053431;28;20090;-77
2023/03/02 00:26:40;;;;;;;23.15;16.85;;;3.50;99.90;;;;;;5047131;28;20059;-77
2023/03/02 00:29:06;;;;;;;21.27;14.73;;;3.50;99.90;;;;;;5060437;28;20041;-77
2023/03/02 00:31:32;;;;;;;24.20;14.80;;;3.50;99.90;;;;;;5046701;28;20033;-77
2023/03/02 00:33:58;;;;;;;18.80;12.53;;;3.50;99.90;;;;;;5051249;28;20043;-77
2023/03/02 00:36:23;;;;;;;18.05;14.27;;;3.50;99.90;;;;;;5066082;28;20040;-77
2023/03/02 00:38:53;;;;;;;23.42;14.85;;;3.50;99.90;;;;;;5059097;28;20423;-77
2023/03/02 00:41:22;;;;;;;18.60;12.18;;;3.60;99.90;;;;;;5058985;28;20037;-77
2023/03/02 00:43:48;;;;;;;15.07;10.55;;;3.60;99.90;;;;;;5065118;28;20051;-77
2023/03/02 00:46:21;;;;;;;17.20;11.82;;;3.50;99.90;;;;;;5068253;28;20673;-77
2023/03/02 00:48:47;;;;;;;15.20;10.70;;;3.50;99.90;;;;;;5067440;28;20123;-77
2023/03/02 00:51:13;;;;;;;14.90;10.00;;;3.50;99.90;;;;;;5046062;28;20092;-77
2023/03/02 00:53:39;;;;;;;19.48;10.88;;;3.50;99.90;;;;;;5049533;28;20056;-77
2023/03/02 00:56:06;;;;;;;20.70;11.40;;;3.50;99.90;;;;;;5066335;28;20044;-77
2023/03/02 00:58:31;;;;;;;16.58;12.43;;;3.50;99.90;;;;;;5051442;28;20072;-78
2023/03/02 01:00:58;;;;;;;18.45;11.85;;;3.50;99.90;;;;;;5063619;28;20080;-77
2023/03/02 01:03:24;;;;;;;20.55;12.20;;;3.40;99.90;;;;;;5053580;28;20090;-77
2023/03/02 01:05:54;;;;;;;15.18;11.60;;;3.40;99.90;;;;;;5064832;28;20080;-77
2023/03/02 01:08:20;;;;;;;17.13;10.60;;;3.40;99.90;;;;;;5064138;28;20737;-78
2023/03/02 01:10:46;;;;;;;14.52;10.13;;;3.40;99.90;;;;;;5050390;28;20570;-77
2023/03/02 01:13:11;;;;;;;11.25;8.65;;;3.40;99.90;;;;;;5060094;28;20036;-77
2023/03/02 01:15:37;;;;;;;15.90;11.70;;;3.40;99.90;;;;;;5052136;28;20040;-77
2023/03/02 01:18:03;;;;;;;12.77;9.35;;;3.40;99.90;;;;;;5060978;28;20047;-77
2023/03/02 01:20:28;;;;;;;13.80;10.70;;;3.40;99.90;;;;;;5046636;28;20499;-77
2023/03/02 01:22:54;;;;;;;15.45;9.30;;;3.40;99.90;;;;;;5031301;28;20079;-77
2023/03/02 01:25:20;;;;;;;15.93;13.15;;;3.40;99.90;;;;;;5063700;28;20545;-77
2023/03/02 01:27:45;;;;;;;12.35;7.60;;;3.30;99.90;;;;;;5064549;28;20048;-77
2023/03/02 01:30:12;;;;;;;15.93;8.30;;;3.30;99.90;;;;;;5064310;28;20045;-77
2023/03/02 01:32:37;;;;;;;12.07;9.85;;;3.30;99.90;;;;;;5046924;28;20416;-77
2023/03/02 01:35:04;;;;;;;18.80;11.68;;;3.30;99.90;;;;;;5054817;28;20036;-77
2023/03/02 01:37:29;;;;;;;14.15;9.18;;;3.30;99.90;;;;;;5055001;28;20112;-77
2023/03/02 01:39:55;;;;;;;14.23;8.47;;;3.30;99.90;;;;;;5045475;28;20041;-77
2023/03/02 01:42:20;;;;;;;11.73;8.90;;;3.20;99.90;;;;;;5057497;28;20045;-77
2023/03/02 01:44:49;;;;;;;14.38;9.43;;;3.20;99.90;;;;;;5066097;28;20043;-77
2023/03/02 01:47:35;;;;;;;9.60;8.63;;;3.20;99.90;;;;;;5067360;28;20076;-77
2023/03/02 01:50:13;;;;;;;10.50;7.47;;;3.20;99.90;;;;;;5056093;28;20127;-77
2023/03/02 01:52:39;;;;;;;11.43;8.67;;;3.20;99.90;;;;;;5069572;28;20057;-77
2023/03/02 01:55:10;;;;;;;14.38;7.07;;;3.20;99.90;;;;;;5068144;28;20037;-77
2023/03/02 01:57:44;;;;;;;6.97;6.03;;;3.20;99.90;;;;;;5069603;28;20408;-78
2023/03/02 02:00:18;;;;;;;9.07;7.23;;;3.30;99.90;;;;;;5067730;28;20119;-77
2023/03/02 02:02:44;;;;;;;11.87;6.23;;;3.20;99.90;;;;;;5066651;28;20044;-77
2023/03/02 02:05:15;;;;;;;7.38;6.13;;;3.30;99.90;;;;;;5069051;28;20036;-77
2023/03/02 02:07:41;;;;;;;8.70;5.68;;;3.20;99.90;;;;;;5051095;28;20049;-77
2023/03/02 02:10:08;;;;;;;6.67;5.97;;;3.20;99.90;;;;;;5065225;28;20507;-77
2023/03/02 02:12:34;;;;;;;7.13;4.85;;;3.20;99.90;;;;;;5053093;28;20120;-76
2023/03/02 02:15:00;;;;;;;7.07;5.90;;;3.20;99.90;;;;;;5068656;28;20107;-77
2023/03/02 02:17:28;;;;;;;9.65;7.07;;;3.10;99.90;;;;;;5069161;28;20115;-77
2023/03/02 02:20:06;;;;;;;13.60;6.60;;;3.10;99.90;;;;;;5052492;28;20049;-77
2023/03/02 02:22:50;;;;;;;7.50;5.73;;;3.10;99.90;;;;;;5048801;28;20049;-77
2023/03/02 02:25:57;;;;;;;8.03;6.17;;;3.00;99.90;;;;;;5047573;28;20172;-77
2023/03/02 02:28:43;;;;;;;8.13;5.30;;;3.00;99.90;;;;;;5059954;28;20052;-77
2023/03/02 02:31:18;;;;;;;9.40;6.67;;;3.00;99.90;;;;;;5050955;28;20052;-77
2023/03/02 02:33:49;;;;;;;9.03;4.80;;;2.90;99.90;;;;;;5068128;28;20448;-77
2023/03/02 02:36:21;;;;;;;8.57;5.93;;;2.90;99.90;;;;;;5068569;28;20459;-77
2023/03/02 02:38:51;;;;;;;7.53;6.32;;;2.80;99.90;;;;;;5066413;28;20051;-76
2023/03/02 02:41:21;;;;;;;12.00;5.32;;;2.70;99.90;;;;;;5065631;28;20081;-77
2023/03/02 02:43:48;;;;;;;8.20;6.23;;;2.70;99.90;;;;;;5053591;28;20040;-77
2023/03/02 02:46:14;;;;;;;9.57;5.67;;;2.60;99.90;;;;;;5067355;28;20131;-77
2023/03/02 02:48:40;;;;;;;8.70;6.83;;;2.60;99.90;;;;;;5074161;28;20151;-77
2023/03/02 02:51:08;;;;;;;10.30;6.67;;;2.60;99.90;;;;;;5049338;28;20044;-77
2023/03/02 02:53:49;;;;;;;9.77;6.97;;;2.60;99.90;;;;;;5046625;28;20114;-77
2023/03/02 02:56:16;;;;;;;8.33;5.63;;;2.60;99.90;;;;;;5047071;28;20080;-77
2023/03/02 02:58:41;;;;;;;9.10;7.77;;;2.50;99.90;;;;;;5051047;28;20076;-77
2023/03/02 03:01:10;;;;;;;10.13;6.80;;;2.50;99.90;;;;;;5066945;28;20493;-77
2023/03/02 03:03:38;;;;;;;11.83;8.20;;;2.50;99.90;;;;;;5066925;28;20076;-77
2023/03/02 03:06:15;;;;;;;9.73;8.33;;;2.50;99.90;;;;;;5068240;28;20045;-77
2023/03/02 03:08:44;;;;;;;11.03;6.53;;;2.50;99.90;;;;;;5067182;28;20047;-77
2023/03/02 03:11:15;;;;;;;13.87;9.90;;;2.50;99.90;;;;;;5067666;28;20044;-77
2023/03/02 03:13:43;;;;;;;16.33;8.23;;;2.60;99.90;;;;;;5067027;28;20448;-77
2023/03/02 03:16:12;;;;;;;15.03;9.57;;;2.60;99.90;;;;;;5062623;28;20048;-77
2023/03/02 03:18:41;;;;;;;21.80;11.07;;;2.60;99.90;;;;;;5048572;28;20045;-77
2023/03/02 03:21:07;;;;;;;12.25;9.65;;;2.70;99.90;;;;;;5065957;28;20048;-77
2023/03/02 03:23:36;;;;;;;17.90;11.93;;;2.70;99.90;;;;;;5057679;28;20041;-77
2023/03/02 03:26:03;;;;;;;20.27;12.03;;;2.70;99.90;;;;;;5034703;28;20035;-77
2023/03/02 03:28:30;;;;;;;22.20;14.00;;;2.70;99.90;;;;;;5066546;28;20044;-76
2023/03/02 03:30:55;;;;;;;34.73;15.97;;;2.80;99.90;;;;;;5066445;28;20112;-77
2023/03/02 03:33:21;;;;;;;23.83;13.30;;;2.70;99.90;;;;;;5056071;28;20182;-77
2023/03/02 03:35:46;;;;;;;23.40;14.60;;;2.70;99.90;;;;;;5066531;28;20028;-77
2023/03/02 03:38:12;;;;;;;29.93;14.53;;;2.70;99.90;;;;;;5065980;28;20045;-77
2023/03/02 03:40:38;;;;;;;24.93;15.70;;;2.70;99.90;;;;;;5066679;28;20044;-77
2023/03/02 03:43:03;;;;;;;24.60;15.70;;;2.70;99.90;;;;;;5067400;28;20094;-77
2023/03/02 03:45:29;;;;;;;20.87;13.80;;;2.70;99.90;;;;;;5067082;28;20131;-76
2023/03/02 03:47:55;;;;;;;23.60;16.17;;;2.70;99.90;;;;;;5080575;28;20476;-76
2023/03/02 03:50:21;;;;;;;29.73;16.27;;;2.70;99.90;;;;;;5065396;28;20052;-76
2023/03/02 03:52:46;;;;;;;26.88;15.18;;;2.70;99.90;;;;;;5054646;28;20041;-76
2023/03/02 03:55:13;;;;;;;28.50;15.90;;;2.70;99.90;;;;;;5060416;28;20082;-76
2023/03/02 03:57:39;;;;;;;28.10;17.13;;;2.70;99.90;;;;;;5066906;28;20611;-76
2023/03/02 04:00:09;;;;;;;21.43;14.53;;;2.70;99.90;;;;;;5048482;28;20049;-76
2023/03/02 04:02:36;;;;;;;20.87;13.87;;;2.70;99.90;;;;;;5047799;28;20056;-76
2023/03/02 04:05:05;;;;;;;18.93;13.77;;;2.70;99.90;;;;;;5046891;28;20052;-76
2023/03/02 04:07:32;;;;;;;20.47;12.97;;;2.70;99.90;;;;;;5059735;28;20072;-76
2023/03/02 04:10:02;;;;;;;15.60;11.87;;;2.70;99.90;;;;;;5065995;28;20121;-76
2023/03/02 04:12:37;;;;;;;19.87;14.10;;;2.70;99.90;;;;;;5035388;28;20128;-76
2023/03/02 04:15:04;;;;;;;17.50;12.20;;;2.70;99.90;;;;;;5060351;28;20036;-76
2023/03/02 04:17:30;;;;;;;17.63;13.07;;;2.60;99.90;;;;;;5048688;28;20099;-77
2023/03/02 04:19:56;;;;;;;18.97;12.57;;;2.60;99.90;;;;;;5050147;28;20041;-76
2023/03/02 04:22:21;;;;;;;21.30;13.30;;;2.60;99.90;;;;;;5053001;28;20037;-76
2023/03/02 04:24:50;;;;;;;17.42;12.18;;;2.60;99.90;;;;;;5054960;28;20131;-76
2023/03/02 04:27:16;;;;;;;15.60;10.10;;;2.60;99.90;;;;;;5059793;28;20036;-76
2023/03/02 04:29:43;;;;;;;19.57;13.27;;;2.60;99.90;;;;;;5048644;28;20455;-76
2023/03/02 04:32:10;;;;;;;18.17;12.90;;;2.60;99.90;;;;;;5045494;28;20048;-76
2023/03/02 04:34:36;;;;;;;24.63;15.37;;;2.60;99.90;;;;;;5046682;28;20041;-76
2023/03/02 04:37:02;;;;;;;25.93;15.67;;;2.60;99.90;;;;;;5046841;28;20041;-76
2023/03/02 04:39:28;;;;;;;23.17;15.80;;;2.60;99.90;;;;;;5044711;28;20045;-76
2023/03/02 04:41:53;;;;;;;18.13;13.27;;;2.60;99.90;;;;;;5057476;28;20043;-76
2023/03/02 04:44:20;;;;;;;22.40;13.97;;;2.60;99.90;;;;;;5066343;28;20590;-76
2023/03/02 04:46:46;;;;;;;23.73;16.10;;;2.60;99.90;;;;;;5066160;28;20060;-76
2023/03/02 04:49:14;;;;;;;23.37;13.83;;;2.60;99.90;;;;;;5052603;28;20124;-76
2023/03/02 04:51:43;;;;;;;43.23;14.33;;;2.50;99.90;;;;;;5061246;28;20113;-76
2023/03/02 04:54:21;;;;;;;21.43;16.23;;;2.50;99.90;;;;;;5060319;28;20051;-76
2023/03/02 04:56:47;;;;;;;25.07;14.83;;;2.50;99.90;;;;;;5047634;28;20032;-76
2023/03/02 04:59:15;;;;;;;21.47;16.53;;;2.50;99.90;;;;;;5028205;28;20128;-76
2023/03/02 05:01:41;;;;;;;22.47;15.97;;;2.60;99.90;;;;;;5046314;28;20072;-76
2023/03/02 05:04:07;;;;;;;23.53;14.27;;;2.60;99.90;;;;;;5046224;28;20459;-76
2023/03/02 05:06:33;;;;;;;26.47;15.00;;;2.60;99.90;;;;;;5059290;28;20045;-76
2023/03/02 05:08:59;;;;;;;26.13;17.70;;;2.60;99.90;;;;;;5046025;28;20045;-76
2023/03/02 05:11:25;;;;;;;27.17;15.43;;;2.60;99.90;;;;;;5049338;28;20058;-76
2023/03/02 05:14:03;;;;;;;20.27;15.33;;;2.60;99.90;;;;;;5064834;28;20044;-76
2023/03/02 05:16:31;;;;;;;22.53;17.93;;;2.50;99.90;;;;;;5057547;28;20566;-76
2023/03/02 05:18:57;;;;;;;18.07;12.90;;;2.50;99.90;;;;;;5056483;28;20045;-76
2023/03/02 05:21:23;;;;;;;24.83;14.40;;;2.60;99.90;;;;;;5064360;28;20040;-76
2023/03/02 05:23:49;;;;;;;21.90;17.63;;;2.50;99.90;;;;;;5065762;28;20526;-76
2023/03/02 05:26:15;;;;;;;32.50;21.67;;;2.50;99.90;;;;;;5053246;28;20052;-76
2023/03/02 05:28:41;;;;;;;30.87;17.30;;;2.50;99.90;;;;;;5060112;28;20048;-76
2023/03/02 05:31:07;;;;;;;26.17;16.67;;;2.60;99.90;;;;;;5049852;28;20041;-76
2023/03/02 05:33:33;;;;;;;33.83;18.83;;;2.60;99.90;;;;;;5049110;28;20504;-76
2023/03/02 05:35:59;;;;;;;35.53;16.60;;;2.60;99.90;;;;;;5050351;28;20041;-76
2023/03/02 05:38:26;;;;;;;29.93;19.10;;;2.60;99.90;;;;;;5061151;28;20109;-76
2023/03/02 05:40:52;;;;;;;30.20;19.20;;;2.60;99.90;;;;;;5051449;28;20433;-76
2023/03/02 05:43:19;;;;;;;34.93;19.93;;;2.60;99.90;;;;;;5069210;28;20056;-76
2023/03/02 05:45:45;;;;;;;38.40;25.43;;;2.70;99.90;;;;;;5070933;28;20072;-76
2023/03/02 05:48:14;;;;;;;38.53;23.70;;;2.70;99.90;;;;;;5089770;28;20079;-76
2023/03/02 05:50:40;;;;;;;42.17;23.30;;;2.70;99.90;;;;;;5089628;28;20533;-76
2023/03/02 05:53:06;;;;;;;33.37;19.67;;;2.70;99.90;;;;;;5078606;28;20048;-76
2023/03/02 05:55:35;;;;;;;36.00;22.13;;;2.70;99.90;;;;;;5063797;28;20033;-77
2023/03/02 05:58:21;;;;;;;42.37;21.53;;;2.60;99.90;;;;;;5055352;28;20048;-77
2023/03/02 06:00:48;;;;;;;41.30;21.13;;;2.60;99.90;;;;;;5054500;28;20060;-76
2023/03/02 06:03:14;;;;;;;40.10;25.00;;;2.60;99.90;;;;;;5048083;28;20071;-76
2023/03/02 06:05:40;;;;;;;42.77;24.40;;;2.60;99.90;;;;;;5068603;28;20124;-76
2023/03/02 06:08:06;;;;;;;46.03;27.33;;;2.70;99.90;;;;;;5061426;28;20125;-77
2023/03/02 06:10:32;;;;;;;51.17;30.00;;;2.60;99.90;;;;;;5031517;28;20283;-76
2023/03/02 06:12:58;;;;;;;61.57;30.07;;;2.70;99.90;;;;;;5058558;28;20076;-75
2023/03/02 06:15:23;;;;;;;60.67;27.90;;;2.70;99.90;;;;;;5067199;28;20072;-75
2023/03/02 06:17:49;;;;;;;43.30;25.20;;;2.70;99.90;;;;;;5068880;28;20512;-75
2023/03/02 06:20:17;;;;;;;46.47;25.67;;;2.70;99.90;;;;;;5067237;28;20396;-75
2023/03/02 06:22:44;;;;;;;46.00;27.33;;;2.70;99.90;;;;;;5066465;28;20087;-75
2023/03/02 06:25:16;;;;;;;51.33;29.83;;;2.70;99.90;;;;;;5056239;28;20565;-75
2023/03/02 06:27:42;;;;;;;50.20;29.65;;;2.70;99.90;;;;;;5064990;28;20047;-75
2023/03/02 06:30:10;;;;;;;57.53;33.10;;;2.70;99.90;;;;;;5048797;28;20082;-75
2023/03/02 06:32:36;;;;;;;58.77;28.57;;;2.70;99.90;;;;;;5036544;28;20041;-76
2023/03/02 06:35:03;;;;;;;59.45;27.77;;;2.70;99.90;;;;;;5055333;28;20052;-77
2023/03/02 06:37:29;;;;;;;62.90;32.90;;;2.70;99.90;;;;;;5067589;28;20041;-77
2023/03/02 06:39:55;;;;;;;44.47;26.97;;;2.80;99.90;;;;;;5059702;28;20770;-78
2023/03/02 06:42:22;;;;;;;49.50;25.90;;;2.70;99.90;;;;;;5046810;28;20115;-77
2023/03/02 06:44:50;;;;;;;62.43;25.23;;;2.80;99.90;;;;;;5047272;28;20136;-76
2023/03/02 06:47:17;;;;;;;42.60;26.23;;;2.80;99.90;;;;;;5066841;28;20397;-77
2023/03/02 06:49:42;;;;;;;38.27;23.37;;;2.80;99.90;;;;;;5047147;28;20037;-77
2023/03/02 06:52:09;;;;;;;46.53;25.03;;;2.80;99.90;;;;;;5049674;28;20064;-76
2023/03/02 06:54:35;;;;;;;44.97;25.07;;;2.80;99.90;;;;;;5053278;28;20431;-77
2023/03/02 06:57:02;;;;;;;46.33;28.10;;;2.80;99.90;;;;;;5058150;28;20045;-77
2023/03/02 06:59:27;;;;;;;38.90;24.73;;;2.80;99.90;;;;;;5047063;28;20061;-76
2023/03/02 07:01:53;;;;;;;38.57;23.93;;;2.80;99.90;;;;;;5063039;28;20125;-76
2023/03/02 07:04:19;;;;;;;25.65;17.98;;;2.80;99.90;;;;;;5050668;28;20033;-76
2023/03/02 07:06:45;;;;;;;34.00;20.00;;;2.80;99.90;;;;;;5067729;28;20037;-77
2023/03/02 07:09:10;;;;;;;42.40;24.57;;;2.80;99.90;;;;;;5065234;28;20048;-77
2023/03/02 07:11:36;;;;;;;39.90;24.27;;;2.80;99.90;;;;;;5047845;28;20052;-78
2023/03/02 07:14:02;;;;;;;42.53;23.40;;;2.90;99.90;;;;;;5057202;28;20055;-77
2023/03/02 07:16:29;;;;;;;40.63;23.33;;;2.90;99.90;;;;;;5046490;28;20136;-77
2023/03/02 07:18:54;;;;;;;38.83;24.92;;;2.90;99.90;;;;;;5062529;28;20036;-77
2023/03/02 07:21:20;;;;;;;63.80;23.47;;;2.90;99.90;;;;;;5064454;28;20055;-77
2023/03/02 07:23:46;;;;;;;46.63;24.88;;;2.90;99.90;;;;;;5048371;28;20044;-77
2023/03/02 07:26:11;;;;;;;45.50;26.80;;;2.90;99.90;;;;;;5065700;28;20400;-77
2023/03/02 07:28:39;;;;;;;51.23;24.93;;;2.90;99.90;;;;;;5067244;28;20089;-77
2023/03/02 07:31:05;;;;;;;42.30;24.23;;;2.90;99.90;;;;;;5050370;28;20132;-78
2023/03/02 07:33:31;;;;;;;43.03;23.70;;;3.00;99.90;;;;;;5029446;28;20123;-77
2023/03/02 07:35:57;;;;;;;44.55;24.52;;;3.00;99.90;;;;;;5045983;28;20532;-77
2023/03/02 07:38:22;;;;;;;42.97;27.50;;;3.00;99.90;;;;;;5031062;28;20119;-77
2023/03/02 07:40:48;;;;;;;33.03;21.00;;;3.00;99.90;;;;;;5063364;28;20119;-78
2023/03/02 07:43:14;;;;;;;45.53;24.92;;;3.00;99.90;;;;;;5050364;28;20412;-77
2023/03/02 07:45:40;;;;;;;44.80;26.87;;;3.00;99.90;;;;;;5064946;28;20111;-77
2023/03/02 07:48:06;;;;;;;41.42;22.02;;;3.00;99.90;;;;;;5064694;28;20374;-77
2023/03/02 07:50:32;;;;;;;52.08;24.20;;;3.00;99.90;;;;;;5058816;28;20048;-77
2023/03/02 07:52:58;;;;;;;50.88;27.83;;;3.10;99.90;;;;;;5055531;28;20045;-78
2023/03/02 07:55:24;;;;;;;48.50;25.65;;;3.10;99.90;;;;;;5055189;28;20104;-77
2023/03/02 07:57:52;;;;;;;46.15;25.95;;;3.10;99.90;;;;;;5065353;28;20037;-78
2023/03/02 08:00:19;;;;;;;45.10;22.42;;;3.10;99.90;;;;;;5065882;28;20455;-78
2023/03/02 08:02:45;;;;;;;46.92;26.83;;;3.10;99.90;;;;;;5064803;28;20040;-78
2023/03/02 08:05:11;;;;;;;44.22;24.98;;;3.20;99.90;;;;;;5060778;28;20039;-78
2023/03/02 08:07:37;;;;;;;50.88;28.17;;;3.20;99.90;;;;;;5053938;28;20036;-77
2023/03/02 08:10:03;;;;;;;45.53;24.05;;;3.20;99.90;;;;;;5053700;28;20054;-78
2023/03/02 08:12:29;;;;;;;42.50;24.20;;;3.20;99.90;;;;;;5063147;28;20074;-78
2023/03/02 08:14:54;;;;;;;39.92;25.92;;;3.20;99.90;;;;;;5047354;28;20178;-78
2023/03/02 08:17:20;;;;;;;54.05;26.15;;;3.20;99.90;;;;;;5046371;28;20067;-78
2023/03/02 08:19:46;;;;;;;36.28;20.58;;;3.20;99.90;;;;;;5047400;28;20052;-78
2023/03/02 08:22:12;;;;;;;40.70;24.83;;;3.20;99.90;;;;;;5034599;28;20040;-78
2023/03/02 08:24:40;;;;;;;57.45;29.42;;;3.30;99.90;;;;;;5049585;28;20129;-78
2023/03/02 08:27:06;;;;;;;44.35;23.27;;;3.30;99.90;;;;;;5048604;28;20113;-77
2023/03/02 08:29:31;;;;;;;42.35;22.75;;;3.40;99.90;;;;;;5048642;28;20493;-78
2023/03/02 08:31:57;;;;;;;40.03;22.73;;;3.40;99.90;;;;;;5046102;28;20515;-77
2023/03/02 08:34:25;;;;;;;46.80;26.75;;;3.40;99.90;;;;;;5059775;28;20037;-77
2023/03/02 08:36:51;;;;;;;52.10;22.85;;;3.40;99.90;;;;;;5060019;28;20047;-78
2023/03/02 08:39:16;;;;;;;40.40;24.40;;;3.40;99.90;;;;;;5061060;28;20040;-78
2023/03/02 08:41:42;;;;;;;45.03;25.95;;;3.40;99.90;;;;;;5060908;28;20127;-78
2023/03/02 08:44:08;;;;;;;52.72;25.58;;;3.40;99.90;;;;;;5047144;28;20055;-78
2023/03/02 08:46:33;;;;;;;48.15;23.33;;;3.40;99.90;;;;;;5038384;28;20582;-77
2023/03/02 08:48:59;;;;;;;35.20;18.85;;;3.40;99.90;;;;;;5037870;28;20051;-76
2023/03/02 08:51:25;;;;;;;42.42;19.67;;;3.50;99.90;;;;;;5039153;28;20504;-77
2023/03/02 08:53:53;;;;;;;31.25;17.15;;;3.50;99.90;;;;;;5053164;28;20045;-77
2023/03/02 08:56:28;;;;;;;36.38;18.55;;;3.50;99.90;;;;;;5049417;28;20040;-77
2023/03/02 08:58:56;;;;;;;30.63;20.20;;;3.50;99.90;;;;;;5068364;28;20124;-76
2023/03/02 09:01:25;;;;;;;36.50;20.70;;;3.50;99.90;;;;;;5069066;28;20487;-77
2023/03/02 09:03:51;;;;;;;39.50;20.00;;;3.50;99.90;;;;;;5076156;28;20068;-77
2023/03/02 09:06:17;;;;;;;34.97;19.92;;;3.50;99.90;;;;;;5056271;28;20048;-76
2023/03/02 09:08:43;;;;;;;33.83;19.10;;;3.50;99.90;;;;;;5054779;28;20048;-77
2023/03/02 09:11:09;;;;;;;30.52;18.90;;;3.50;99.90;;;;;;5076825;28;20124;-74
2023/03/02 09:13:35;;;;;;;31.10;20.92;;;3.50;99.90;;;;;;5035003;28;20471;-74
2023/03/02 09:16:00;;;;;;;31.20;18.42;;;3.60;99.90;;;;;;5053414;28;20501;-75
2023/03/02 09:18:27;;;;;;;32.88;19.92;;;3.60;99.90;;;;;;5046740;28;20098;-76
2023/03/02 09:20:55;;;;;;;35.70;19.10;;;3.60;99.90;;;;;;5066024;28;20055;-74
2023/03/02 09:23:21;;;;;;;35.63;18.23;;;3.70;99.90;;;;;;5052500;28;20040;-75
2023/03/02 09:25:47;;;;;;;35.25;17.55;;;3.70;99.90;;;;;;5063118;28;20050;-75
2023/03/02 09:28:13;;;;;;;35.42;18.23;;;3.70;99.90;;;;;;5062838;28;20491;-75
2023/03/02 09:30:39;;;;;;;32.58;20.15;;;3.70;99.90;;;;;;5082833;28;20047;-74
2023/03/02 09:33:05;;;;;;;33.63;18.88;;;3.70;99.90;;;;;;5069404;28;20548;-75
2023/03/02 09:35:30;;;;;;;33.67;19.48;;;3.80;99.90;;;;;;5066834;28;20711;-75
2023/03/02 09:37:56;;;;;;;43.00;21.50;;;3.80;99.90;;;;;;5057961;28;20513;-75
2023/03/02 09:40:25;;;;;;;32.05;15.85;;;3.90;99.90;;;;;;5083462;28;20066;-75
2023/03/02 09:43:03;;;;;;;36.58;17.58;;;3.90;99.90;;;;;;5046488;28;20083;-75
2023/03/02 09:45:44;;;;;;;38.97;20.00;;;3.90;99.90;;;;;;5052866;28;20036;-74
2023/03/02 09:48:37;;;;;;;40.92;19.00;;;3.90;99.90;;;;;;5071830;28;20500;-75
2023/03/02 09:51:22;;;;;;;31.13;18.42;;;4.00;99.90;;;;;;5068656;28;20048;-76
2023/03/02 09:54:00;;;;;;;40.60;19.13;;;4.00;99.90;;;;;;5057655;28;20139;-74
2023/03/02 09:56:26;;;;;;;28.08;18.05;;;4.00;99.90;;;;;;5059348;28;20082;-74
2023/03/02 09:59:26;;;;;;;29.63;18.27;;;4.00;99.90;;;;;;5084058;28;20040;-75
2023/03/02 10:02:20;;;;;;;26.25;16.48;;;4.00;99.90;;;;;;5048832;28;20080;-74
2023/03/02 10:04:52;;;;;;;27.52;16.48;;;4.00;99.90;;;;;;5057512;28;20396;-75
2023/03/02 10:07:47;;;;;;;32.13;18.88;;;4.00;99.90;;;;;;5064728;28;20056;-75
2023/03/02 10:10:31;;;;;;;31.65;16.05;;;4.00;99.90;;;;;;5070133;28;20382;-75
2023/03/02 10:13:02;;;;;;;34.35;17.52;;;4.00;99.90;;;;;;5089971;28;20086;-75
2023/03/02 10:15:38;;;;;;;25.15;16.95;;;4.00;99.90;;;;;;5066200;28;20041;-74
2023/03/02 10:18:16;;;;;;;25.52;18.38;;;4.00;99.90;;;;;;5053442;28;20049;-74
2023/03/02 10:20:50;;;;;;;19.85;15.80;;;4.00;99.90;;;;;;5047837;28;20048;-74
2023/03/02 10:23:47;;;;;;;30.80;18.65;;;4.00;99.90;;;;;;5070240;28;20075;-75
2023/03/02 10:26:24;;;;;;;36.58;18.35;;;4.10;99.90;;;;;;5045363;28;20044;-74
2023/03/02 10:29:02;;;;;;;39.60;20.02;;;4.10;99.90;;;;;;5060403;28;20048;-73
2023/03/02 10:31:32;;;;;;;29.83;17.00;;;4.10;99.90;;;;;;5073894;28;20048;-75
2023/03/02 10:33:59;;;;;;;28.42;16.85;;;4.20;99.90;;;;;;5051514;28;20449;-75
2023/03/02 10:36:28;;;;;;;35.53;18.92;;;4.10;99.90;;;;;;5067816;28;20465;-75
2023/03/02 10:38:55;;;;;;;35.67;18.83;;;4.10;99.90;;;;;;5066033;28;20044;-75
2023/03/02 10:41:31;;;;;;;26.17;19.48;;;4.20;99.90;;;;;;5049934;28;20377;-75
2023/03/02 10:44:05;;;;;;;36.20;17.60;;;4.20;99.90;;;;;;5037581;28;20040;-75
2023/03/02 10:46:42;;;;;;;27.25;15.85;;;4.30;99.90;;;;;;5061958;28;20085;-75
2023/03/02 10:49:27;;;;;;;28.60;17.40;;;4.30;99.90;;;;;;5088549;28;20072;-75
2023/03/02 10:51:59;;;;;;;25.88;17.02;;;4.30;99.90;;;;;;5065651;28;20405;-75
2023/03/02 10:54:27;;;;;;;27.73;16.63;;;4.30;99.90;;;;;;5069029;28;20131;-75
2023/03/02 10:56:56;;;;;;;28.77;17.27;;;4.40;99.90;;;;;;5068229;28;20609;-75
2023/03/02 10:59:27;;;;;;;34.33;18.70;;;4.40;99.90;;;;;;5067932;28;20054;-75
2023/03/02 11:02:01;;;;;;;30.20;16.30;;;4.50;99.90;;;;;;5067136;28;20056;-75
2023/03/02 11:04:27;;;;;;;30.25;15.82;;;4.50;99.90;;;;;;5063930;28;20033;-75
2023/03/02 11:06:53;;;;;;;28.45;16.38;;;4.50;99.90;;;;;;5055505;28;20051;-75
2023/03/02 11:09:19;;;;;;;21.10;15.23;;;4.50;99.90;;;;;;5051077;28;20045;-76
2023/03/02 11:11:54;;;;;;;32.08;19.05;;;4.60;99.90;;;;;;5060505;28;20051;-74
2023/03/02 11:14:22;;;;;;;33.97;16.00;;;4.60;99.90;;;;;;5059035;28;20059;-74
2023/03/02 11:16:49;;;;;;;33.83;17.67;;;4.60;99.90;;;;;;5047138;28;20094;-74
2023/03/02 11:19:33;;;;;;;36.42;14.18;;;4.70;99.90;;;;;;5062042;28;20103;-74
2023/03/02 11:22:15;;;;;;;19.83;12.60;;;4.80;99.90;;;;;;5058623;28;20052;-74
2023/03/02 11:24:46;;;;;;;27.15;15.80;;;4.80;99.90;;;;;;5059710;28;20091;-75
2023/03/02 11:27:36;;;;;;;18.88;10.48;;;4.80;99.90;;;;;;5066721;28;20045;-76
2023/03/02 11:30:22;;;;;;;18.17;11.93;;;4.90;99.90;;;;;;5070880;28;20048;-75
2023/03/02 11:33:02;;;;;;;22.42;13.80;;;4.90;99.90;;;;;;5046669;28;20044;-75
2023/03/02 11:35:31;;;;;;;25.63;14.35;;;4.90;99.90;;;;;;5063803;28;20056;-75
2023/03/02 11:38:20;;;;;;;24.90;13.55;;;5.00;99.90;;;;;;5066010;28;20041;-76
2023/03/02 11:40:56;;;;;;;18.88;10.52;;;5.00;99.90;;;;;;5075194;28;20036;-76
2023/03/02 11:43:21;;;;;;;22.92;11.65;;;5.10;99.90;;;;;;5066138;28;20040;-75
2023/03/02 11:46:02;;;;;;;18.02;13.15;;;5.10;99.90;;;;;;5071440;28;20094;-74
2023/03/02 11:48:48;;;;;;;20.20;10.80;;;5.10;99.90;;;;;;5084940;28;20083;-76
2023/03/02 11:51:19;;;;;;;16.20;9.95;;;5.20;99.90;;;;;;5065161;28;20405;-75
2023/03/02 11:53:51;;;;;;;18.60;13.23;;;5.20;99.90;;;;;;5053839;28;20183;-75
2023/03/02 11:56:17;;;;;;;19.95;11.20;;;5.20;99.90;;;;;;5071184;28;20489;-75
2023/03/02 11:58:47;;;;;;;29.63;12.45;;;5.30;99.90;;;;;;5057750;28;20051;-75
2023/03/02 12:01:19;;;;;;;23.80;13.98;;;5.30;99.90;;;;;;5038652;28;20454;-75
2023/03/02 12:03:46;;;;;;;23.70;13.43;;;5.40;99.90;;;;;;5054280;28;20055;-77
2023/03/02 12:06:21;;;;;;;20.75;12.52;;;5.50;99.90;;;;;;5072845;28;20041;-75
2023/03/02 12:08:50;;;;;;;20.08;10.48;;;5.50;99.90;;;;;;5068596;28;20048;-74
2023/03/02 12:11:16;;;;;;;23.98;13.13;;;5.60;99.90;;;;;;5054622;28;20588;-75
2023/03/02 12:13:48;;;;;;;22.45;13.48;;;5.60;99.90;;;;;;5065557;28;20131;-75
2023/03/02 12:16:35;;;;;;;18.60;12.55;;;5.60;99.90;;;;;;5057757;28;20046;-75
2023/03/02 12:19:16;;;;;;;22.83;12.38;;;5.60;99.90;;;;;;5048507;28;20044;-75
2023/03/02 12:22:01;;;;;;;18.95;12.82;;;5.60;99.90;;;;;;5044613;28;20103;-75
2023/03/02 12:24:29;;;;;;;18.73;12.10;;;5.60;99.90;;;;;;5072194;28;20370;-75
2023/03/02 12:27:05;;;;;;;25.17;10.85;;;5.60;99.90;;;;;;5086185;28;20070;-75
2023/03/02 12:29:44;;;;;;;22.52;14.38;;;5.60;99.90;;;;;;5074899;28;20052;-75
2023/03/02 12:32:21;;;;;;;23.90;11.48;;;5.60;99.90;;;;;;5066326;28;20040;-75
2023/03/02 12:35:07;;;;;;;16.30;11.10;;;5.60;99.90;;;;;;5050038;28;20481;-74
2023/03/02 12:37:48;;;;;;;19.35;11.10;;;5.60;99.90;;;;;;5085883;28;20086;-74
2023/03/02 12:40:38;;;;;;;17.58;7.95;;;5.60;99.90;;;;;;5086679;28;20381;-75
2023/03/02 12:43:18;;;;;;;15.05;9.95;;;5.60;99.90;;;;;;5086393;28;20051;-75
2023/03/02 12:46:15;;;;;;;13.57;8.15;;;5.60;99.90;;;;;;5084198;28;20040;-76
2023/03/02 12:49:10;;;;;;;18.50;8.45;;;5.60;99.90;;;;;;5051126;28;20049;-75
2023/03/02 12:51:57;;;;;;;15.52;9.13;;;5.60;99.90;;;;;;5049685;28;20065;-74